sensor_id;sensor_type;location;lat;lon;timestamp;temperature;humidity
18105;DHT22;9179;50.968;3.134;2024-01-30T00:01:32;12.70;99.90
18105;DHT22;9179;50.968;3.134;2024-01-30T00:03:59;12.70;99.90
18105;DHT22;9179;50.968;3.134;2024-01-30T00:06:27;12.70;99.90
18105;DHT22;9179;50.968;3.134;2024-01-30T00:08:54;12.70;99.90
18105;DHT22;9179;50.968;3.134;2024-01-30T00:11:21;12.60;99.90
18105;DHT22;9179;50.968;3.134;2024-01-30T00:13:51;12.70;99.90
18105;DHT22;9179;50.968;3.134;2024-01-30T00:16:21;12.60;99.90
18105;DHT22;9179;50.968;3.134;2024-01-30T00:18:49;12.60;99.90
18105;DHT22;9179;50.968;3.134;2024-01-30T00:21:16;12.60;99.90
18105;DHT22;9179;50.968;3.134;2024-01-30T00:23:45;12.60;99.90
18105;DHT22;9179;50.968;3.134;2024-01-30T00:26:12;12.60;99.90
18105;DHT22;9179;50.968;3.134;2024-01-30T00:28:40;12.60;99.90
18105;DHT22;9179;50.968;3.134;2024-01-30T00:31:07;12.60;99.90
18105;DHT22;9179;50.968;3.134;2024-01-30T00:33:37;12.50;99.90
18105;DHT22;9179;50.968;3.134;2024-01-30T00:36:05;12.50;99.90
18105;DHT22;9179;50.968;3.134;2024-01-30T00:38:32;12.40;99.90
18105;DHT22;9179;50.968;3.134;2024-01-30T00:41:01;12.30;99.90
18105;DHT22;9179;50.968;3.134;2024-01-30T00:43:28;12.30;99.90
18105;DHT22;9179;50.968;3.134;2024-01-30T00:45:57;12.20;99.90
18105;DHT22;9179;50.968;3.134;2024-01-30T00:48:24;12.20;99.90
18105;DHT22;9179;50.968;3.134;2024-01-30T00:50:51;12.10;99.90
18105;DHT22;9179;50.968;3.134;2024-01-30T00:53:18;12.00;99.90
18105;DHT22;9179;50.968;3.134;2024-01-30T00:55:46;12.00;99.90
18105;DHT22;9179;50.968;3.134;2024-01-30T00:58:14;12.00;99.90
18105;DHT22;9179;50.968;3.134;2024-01-30T01:00:41;11.90;99.90
18105;DHT22;9179;50.968;3.134;2024-01-30T01:03:08;12.00;99.90
18105;DHT22;9179;50.968;3.134;2024-01-30T01:05:35;12.00;99.90
18105;DHT22;9179;50.968;3.134;2024-01-30T01:08:02;12.00;99.90
18105;DHT22;9179;50.968;3.134;2024-01-30T01:10:30;11.90;99.90
18105;DHT22;9179;50.968;3.134;2024-01-30T01:12:57;11.90;99.90
18105;DHT22;9179;50.968;3.134;2024-01-30T01:15:25;11.90;99.90
18105;DHT22;9179;50.968;3.134;2024-01-30T01:17:52;11.90;99.90
18105;DHT22;9179;50.968;3.134;2024-01-30T01:20:19;11.90;99.90
18105;DHT22;9179;50.968;3.134;2024-01-30T01:22:46;11.80;99.90
18105;DHT22;9179;50.968;3.134;2024-01-30T01:25:13;11.80;99.90
18105;DHT22;9179;50.968;3.134;2024-01-30T01:27:40;11.80;99.90
18105;DHT22;9179;50.968;3.134;2024-01-30T01:30:09;11.80;99.90
18105;DHT22;9179;50.968;3.134;2024-01-30T01:32:38;11.70;99.90
18105;DHT22;9179;50.968;3.134;2024-01-30T01:35:10;11.70;99.90
18105;DHT22;9179;50.968;3.134;2024-01-30T01:37:37;11.70;99.90
18105;DHT22;9179;50.968;3.134;2024-01-30T01:40:05;11.70;99.90
18105;DHT22;9179;50.968;3.134;2024-01-30T01:42:32;11.70;99.90
18105;DHT22;9179;50.968;3.134;2024-01-30T01:45:01;11.70;99.90
18105;DHT22;9179;50.968;3.134;2024-01-30T01:47:28;11.60;99.90
18105;DHT22;9179;50.968;3.134;2024-01-30T01:49:57;11.70;99.90
18105;DHT22;9179;50.968;3.134;2024-01-30T01:52:24;11.60;99.90
18105;DHT22;9179;50.968;3.134;2024-01-30T01:54:51;11.70;99.90
18105;DHT22;9179;50.968;3.134;2024-01-30T01:57:18;11.60;99.90
18105;DHT22;9179;50.968;3.134;2024-01-30T01:59:45;11.60;99.90
18105;DHT22;9179;50.968;3.134;2024-01-30T02:02:13;11.70;99.90
18105;DHT22;9179;50.968;3.134;2024-01-30T02:04:41;11.80;99.90
18105;DHT22;9179;50.968;3.134;2024-01-30T02:07:11;11.80;99.90
18105;DHT22;9179;50.968;3.134;2024-01-30T02:09:38;12.00;99.90
18105;DHT22;9179;50.968;3.134;2024-01-30T02:12:05;12.00;99.90
18105;DHT22;9179;50.968;3.134;2024-01-30T02:14:32;12.00;99.90
18105;DHT22;9179;50.968;3.134;2024-01-30T02:16:59;12.00;99.90
18105;DHT22;9179;50.968;3.134;2024-01-30T02:19:26;12.00;99.90
18105;DHT22;9179;50.968;3.134;2024-01-30T02:21:55;12.10;99.90
18105;DHT22;9179;50.968;3.134;2024-01-30T02:24:22;12.10;99.90
18105;DHT22;9179;50.968;3.134;2024-01-30T02:26:49;12.10;99.90
18105;DHT22;9179;50.968;3.134;2024-01-30T02:29:16;12.20;99.90
18105;DHT22;9179;50.968;3.134;2024-01-30T02:31:42;12.10;99.90
18105;DHT22;9179;50.968;3.134;2024-01-30T02:34:11;12.20;99.90
18105;DHT22;9179;50.968;3.134;2024-01-30T02:36:38;12.20;99.90
18105;DHT22;9179;50.968;3.134;2024-01-30T02:39:06;12.20;99.90
18105;DHT22;9179;50.968;3.134;2024-01-30T02:41:33;12.20;99.90
18105;DHT22;9179;50.968;3.134;2024-01-30T02:44:00;12.20;99.90
18105;DHT22;9179;50.968;3.134;2024-01-30T02:46:27;12.20;99.90
18105;DHT22;9179;50.968;3.134;2024-01-30T02:48:54;12.20;99.90
18105;DHT22;9179;50.968;3.134;2024-01-30T02:51:21;12.20;99.90
18105;DHT22;9179;50.968;3.134;2024-01-30T02:53:48;12.20;99.90
18105;DHT22;9179;50.968;3.134;2024-01-30T02:56:16;12.20;99.90
18105;DHT22;9179;50.968;3.134;2024-01-30T02:58:43;12.20;99.90
18105;DHT22;9179;50.968;3.134;2024-01-30T03:01:10;12.10;99.90
18105;DHT22;9179;50.968;3.134;2024-01-30T03:03:37;12.10;99.90
18105;DHT22;9179;50.968;3.134;2024-01-30T03:06:06;12.00;99.90
18105;DHT22;9179;50.968;3.134;2024-01-30T03:08:33;11.90;99.90
18105;DHT22;9179;50.968;3.134;2024-01-30T03:11:00;11.80;99.90
18105;DHT22;9179;50.968;3.134;2024-01-30T03:13:29;11.70;99.90
18105;DHT22;9179;50.968;3.134;2024-01-30T03:15:56;11.70;99.90
18105;DHT22;9179;50.968;3.134;2024-01-30T03:18:23;11.60;99.90
18105;DHT22;9179;50.968;3.134;2024-01-30T03:20:50;11.60;99.90
18105;DHT22;9179;50.968;3.134;2024-01-30T03:23:17;11.50;99.90
18105;DHT22;9179;50.968;3.134;2024-01-30T03:25:44;11.50;99.90
18105;DHT22;9179;50.968;3.134;2024-01-30T03:28:11;11.50;99.90
18105;DHT22;9179;50.968;3.134;2024-01-30T03:30:39;11.50;99.90
18105;DHT22;9179;50.968;3.134;2024-01-30T03:33:06;11.60;99.90
18105;DHT22;9179;50.968;3.134;2024-01-30T03:35:33;11.60;99.90
18105;DHT22;9179;50.968;3.134;2024-01-30T03:38:00;11.60;99.90
18105;DHT22;9179;50.968;3.134;2024-01-30T03:40:27;11.70;99.90
18105;DHT22;9179;50.968;3.134;2024-01-30T03:42:53;11.70;99.90
18105;DHT22;9179;50.968;3.134;2024-01-30T03:45:20;11.70;99.90
18105;DHT22;9179;50.968;3.134;2024-01-30T03:47:49;11.70;99.90
18105;DHT22;9179;50.968;3.134;2024-01-30T03:50:15;11.70;99.90
18105;DHT22;9179;50.968;3.134;2024-01-30T03:52:42;11.70;99.90
18105;DHT22;9179;50.968;3.134;2024-01-30T03:55:09;11.80;99.90
18105;DHT22;9179;50.968;3.134;2024-01-30T03:57:36;11.80;99.90
18105;DHT22;9179;50.968;3.134;2024-01-30T04:00:04;11.80;99.90
18105;DHT22;9179;50.968;3.134;2024-01-30T04:02:31;11.90;99.90
18105;DHT22;9179;50.968;3.134;2024-01-30T04:04:59;12.00;99.90
18105;DHT22;9179;50.968;3.134;2024-01-30T04:07:26;12.10;99.90
18105;DHT22;9179;50.968;3.134;2024-01-30T04:09:54;12.10;99.90
18105;DHT22;9179;50.968;3.134;2024-01-30T04:12:21;12.10;99.90
18105;DHT22;9179;50.968;3.134;2024-01-30T04:14:48;12.10;99.90
18105;DHT22;9179;50.968;3.134;2024-01-30T04:17:15;12.00;99.90
18105;DHT22;9179;50.968;3.134;2024-01-30T04:19:42;12.00;99.90
18105;DHT22;9179;50.968;3.134;2024-01-30T04:22:10;12.00;99.90
18105;DHT22;9179;50.968;3.134;2024-01-30T04:24:37;11.90;99.90
18105;DHT22;9179;50.968;3.134;2024-01-30T04:27:04;11.90;99.90
18105;DHT22;9179;50.968;3.134;2024-01-30T04:29:31;11.90;99.90
18105;DHT22;9179;50.968;3.134;2024-01-30T04:31:59;11.90;99.90
18105;DHT22;9179;50.968;3.134;2024-01-30T04:34:26;12.00;99.90
18105;DHT22;9179;50.968;3.134;2024-01-30T04:36:53;12.20;99.90
18105;DHT22;9179;50.968;3.134;2024-01-30T04:39:22;12.30;99.90
18105;DHT22;9179;50.968;3.134;2024-01-30T04:41:48;12.40;99.90
18105;DHT22;9179;50.968;3.134;2024-01-30T04:44:15;12.50;99.90
18105;DHT22;9179;50.968;3.134;2024-01-30T04:46:42;12.50;99.90
18105;DHT22;9179;50.968;3.134;2024-01-30T04:49:09;12.60;99.90
18105;DHT22;9179;50.968;3.134;2024-01-30T04:51:36;12.60;99.90
18105;DHT22;9179;50.968;3.134;2024-01-30T04:54:03;12.70;99.90
18105;DHT22;9179;50.968;3.134;2024-01-30T04:56:31;12.70;99.90
18105;DHT22;9179;50.968;3.134;2024-01-30T04:59:00;12.80;99.90
18105;DHT22;9179;50.968;3.134;2024-01-30T05:01:27;12.90;99.90
18105;DHT22;9179;50.968;3.134;2024-01-30T05:03:54;12.90;99.90
18105;DHT22;9179;50.968;3.134;2024-01-30T05:06:27;12.90;99.90
18105;DHT22;9179;50.968;3.134;2024-01-30T05:08:54;12.90;99.90
18105;DHT22;9179;50.968;3.134;2024-01-30T05:11:21;12.90;99.90
18105;DHT22;9179;50.968;3.134;2024-01-30T05:13:49;12.90;99.90
18105;DHT22;9179;50.968;3.134;2024-01-30T05:16:16;12.90;99.90
18105;DHT22;9179;50.968;3.134;2024-01-30T05:18:43;12.90;99.90
18105;DHT22;9179;50.968;3.134;2024-01-30T05:21:10;12.80;99.90
18105;DHT22;9179;50.968;3.134;2024-01-30T05:23:37;12.80;99.90
18105;DHT22;9179;50.968;3.134;2024-01-30T05:26:04;12.80;99.90
18105;DHT22;9179;50.968;3.134;2024-01-30T05:28:32;12.80;99.90
18105;DHT22;9179;50.968;3.134;2024-01-30T05:31:00;12.90;99.90
18105;DHT22;9179;50.968;3.134;2024-01-30T05:33:27;12.90;99.90
18105;DHT22;9179;50.968;3.134;2024-01-30T05:35:54;12.80;99.90
18105;DHT22;9179;50.968;3.134;2024-01-30T05:38:21;12.80;99.90
18105;DHT22;9179;50.968;3.134;2024-01-30T05:40:48;12.80;99.90
18105;DHT22;9179;50.968;3.134;2024-01-30T05:43:15;12.90;99.90
18105;DHT22;9179;50.968;3.134;2024-01-30T05:45:41;12.90;99.90
18105;DHT22;9179;50.968;3.134;2024-01-30T05:48:10;13.00;99.90
18105;DHT22;9179;50.968;3.134;2024-01-30T05:50:37;12.90;99.90
18105;DHT22;9179;50.968;3.134;2024-01-30T05:53:04;12.90;99.90
18105;DHT22;9179;50.968;3.134;2024-01-30T05:55:31;12.90;99.90
18105;DHT22;9179;50.968;3.134;2024-01-30T05:57:57;12.90;99.90
18105;DHT22;9179;50.968;3.134;2024-01-30T06:00:24;12.90;99.90
18105;DHT22;9179;50.968;3.134;2024-01-30T06:02:51;12.90;99.90
18105;DHT22;9179;50.968;3.134;2024-01-30T06:05:20;12.90;99.90
18105;DHT22;9179;50.968;3.134;2024-01-30T06:07:47;12.90;99.90
18105;DHT22;9179;50.968;3.134;2024-01-30T06:10:14;12.90;99.90
18105;DHT22;9179;50.968;3.134;2024-01-30T06:12:41;12.90;99.90
18105;DHT22;9179;50.968;3.134;2024-01-30T06:15:08;12.90;99.90
18105;DHT22;9179;50.968;3.134;2024-01-30T06:17:35;12.80;99.90
18105;DHT22;9179;50.968;3.134;2024-01-30T06:20:03;12.80;99.90
18105;DHT22;9179;50.968;3.134;2024-01-30T06:22:31;12.80;99.90
18105;DHT22;9179;50.968;3.134;2024-01-30T06:24:58;12.80;99.90
18105;DHT22;9179;50.968;3.134;2024-01-30T06:27:25;12.80;99.90
18105;DHT22;9179;50.968;3.134;2024-01-30T06:29:52;12.90;99.90
18105;DHT22;9179;50.968;3.134;2024-01-30T06:32:19;12.90;99.90
18105;DHT22;9179;50.968;3.134;2024-01-30T06:34:46;12.90;99.90
18105;DHT22;9179;50.968;3.134;2024-01-30T06:37:13;13.00;99.90
18105;DHT22;9179;50.968;3.134;2024-01-30T06:39:41;13.00;99.90
18105;DHT22;9179;50.968;3.134;2024-01-30T06:42:08;13.00;99.90
18105;DHT22;9179;50.968;3.134;2024-01-30T06:44:35;13.00;99.90
18105;DHT22;9179;50.968;3.134;2024-01-30T06:47:02;13.00;99.90
18105;DHT22;9179;50.968;3.134;2024-01-30T06:49:30;12.90;99.90
18105;DHT22;9179;50.968;3.134;2024-01-30T06:51:57;13.00;99.90
18105;DHT22;9179;50.968;3.134;2024-01-30T06:54:24;13.00;99.90
18105;DHT22;9179;50.968;3.134;2024-01-30T06:56:52;13.00;99.90
18105;DHT22;9179;50.968;3.134;2024-01-30T06:59:19;12.90;99.90
18105;DHT22;9179;50.968;3.134;2024-01-30T07:01:46;12.90;99.90
18105;DHT22;9179;50.968;3.134;2024-01-30T07:04:13;12.90;99.90
18105;DHT22;9179;50.968;3.134;2024-01-30T07:06:40;12.90;99.90
18105;DHT22;9179;50.968;3.134;2024-01-30T07:09:07;12.90;99.90
18105;DHT22;9179;50.968;3.134;2024-01-30T07:11:35;13.00;99.90
18105;DHT22;9179;50.968;3.134;2024-01-30T07:14:03;12.90;99.90
18105;DHT22;9179;50.968;3.134;2024-01-30T07:16:30;12.90;99.90
18105;DHT22;9179;50.968;3.134;2024-01-30T07:18:57;12.90;99.90
18105;DHT22;9179;50.968;3.134;2024-01-30T07:21:24;12.90;99.90
18105;DHT22;9179;50.968;3.134;2024-01-30T07:23:54;12.90;99.90
18105;DHT22;9179;50.968;3.134;2024-01-30T07:26:21;12.80;99.90
18105;DHT22;9179;50.968;3.134;2024-01-30T07:28:48;12.90;99.90
18105;DHT22;9179;50.968;3.134;2024-01-30T07:31:17;12.90;99.90
18105;DHT22;9179;50.968;3.134;2024-01-30T07:33:46;12.90;99.90
18105;DHT22;9179;50.968;3.134;2024-01-30T07:36:13;12.90;99.90
18105;DHT22;9179;50.968;3.134;2024-01-30T07:38:40;13.00;99.90
18105;DHT22;9179;50.968;3.134;2024-01-30T07:41:07;13.00;99.90
18105;DHT22;9179;50.968;3.134;2024-01-30T07:43:34;12.90;99.90
18105;DHT22;9179;50.968;3.134;2024-01-30T07:46:01;12.90;99.90
18105;DHT22;9179;50.968;3.134;2024-01-30T07:48:29;12.90;99.90
18105;DHT22;9179;50.968;3.134;2024-01-30T07:50:56;12.90;99.90
18105;DHT22;9179;50.968;3.134;2024-01-30T07:53:24;12.90;99.90
18105;DHT22;9179;50.968;3.134;2024-01-30T07:55:52;12.90;99.90
18105;DHT22;9179;50.968;3.134;2024-01-30T07:58:19;12.90;99.90
18105;DHT22;9179;50.968;3.134;2024-01-30T08:00:46;12.80;99.90
18105;DHT22;9179;50.968;3.134;2024-01-30T08:03:13;12.80;99.90
18105;DHT22;9179;50.968;3.134;2024-01-30T08:05:43;12.70;99.90
18105;DHT22;9179;50.968;3.134;2024-01-30T08:08:10;12.80;99.90
18105;DHT22;9179;50.968;3.134;2024-01-30T08:10:37;12.90;99.90
18105;DHT22;9179;50.968;3.134;2024-01-30T08:13:04;13.00;99.90
18105;DHT22;9179;50.968;3.134;2024-01-30T08:15:31;13.00;99.90
18105;DHT22;9179;50.968;3.134;2024-01-30T08:17:58;12.90;99.90
18105;DHT22;9179;50.968;3.134;2024-01-30T08:20:25;12.90;99.90
18105;DHT22;9179;50.968;3.134;2024-01-30T08:22:54;12.90;99.90
18105;DHT22;9179;50.968;3.134;2024-01-30T08:25:21;13.10;99.90
18105;DHT22;9179;50.968;3.134;2024-01-30T08:27:48;13.20;99.90
18105;DHT22;9179;50.968;3.134;2024-01-30T08:30:15;13.10;99.90
18105;DHT22;9179;50.968;3.134;2024-01-30T08:32:42;13.10;99.90
18105;DHT22;9179;50.968;3.134;2024-01-30T08:35:09;13.00;99.90
18105;DHT22;9179;50.968;3.134;2024-01-30T08:37:39;13.00;99.90
18105;DHT22;9179;50.968;3.134;2024-01-30T08:40:08;13.10;99.90
18105;DHT22;9179;50.968;3.134;2024-01-30T08:42:35;13.10;99.90
18105;DHT22;9179;50.968;3.134;2024-01-30T08:45:03;13.10;99.90
18105;DHT22;9179;50.968;3.134;2024-01-30T08:47:30;13.10;99.90
18105;DHT22;9179;50.968;3.134;2024-01-30T08:49:58;13.00;99.90
18105;DHT22;9179;50.968;3.134;2024-01-30T08:52:25;13.00;99.90
18105;DHT22;9179;50.968;3.134;2024-01-30T08:54:52;12.90;99.90
18105;DHT22;9179;50.968;3.134;2024-01-30T08:57:21;12.80;99.90
18105;DHT22;9179;50.968;3.134;2024-01-30T08:59:48;12.90;99.90
18105;DHT22;9179;50.968;3.134;2024-01-30T09:02:15;12.90;99.90
18105;DHT22;9179;50.968;3.134;2024-01-30T09:04:43;12.80;99.90
18105;DHT22;9179;50.968;3.134;2024-01-30T09:07:10;12.70;99.90
18105;DHT22;9179;50.968;3.134;2024-01-30T09:09:39;12.60;99.90
18105;DHT22;9179;50.968;3.134;2024-01-30T09:12:07;12.40;99.90
18105;DHT22;9179;50.968;3.134;2024-01-30T09:14:37;12.40;99.90
18105;DHT22;9179;50.968;3.134;2024-01-30T09:17:04;12.40;99.90
18105;DHT22;9179;50.968;3.134;2024-01-30T09:19:31;12.40;99.90
18105;DHT22;9179;50.968;3.134;2024-01-30T09:21:58;12.30;99.90
18105;DHT22;9179;50.968;3.134;2024-01-30T09:24:25;12.30;99.90
18105;DHT22;9179;50.968;3.134;2024-01-30T09:26:52;12.40;99.90
18105;DHT22;9179;50.968;3.134;2024-01-30T09:29:19;12.50;99.90
18105;DHT22;9179;50.968;3.134;2024-01-30T09:31:48;12.50;99.90
18105;DHT22;9179;50.968;3.134;2024-01-30T09:34:15;12.50;99.90
18105;DHT22;9179;50.968;3.134;2024-01-30T09:36:41;12.50;99.90
18105;DHT22;9179;50.968;3.134;2024-01-30T09:39:08;12.60;99.90
18105;DHT22;9179;50.968;3.134;2024-01-30T09:41:41;12.60;99.90
18105;DHT22;9179;50.968;3.134;2024-01-30T09:44:11;12.60;99.90
18105;DHT22;9179;50.968;3.134;2024-01-30T09:46:39;12.70;99.90
18105;DHT22;9179;50.968;3.134;2024-01-30T09:49:09;12.80;99.90
18105;DHT22;9179;50.968;3.134;2024-01-30T09:51:36;13.00;99.90
18105;DHT22;9179;50.968;3.134;2024-01-30T09:54:04;12.90;99.90
18105;DHT22;9179;50.968;3.134;2024-01-30T09:56:31;13.10;99.90
18105;DHT22;9179;50.968;3.134;2024-01-30T09:58:58;12.90;99.90
18105;DHT22;9179;50.968;3.134;2024-01-30T10:01:25;12.80;99.90
18105;DHT22;9179;50.968;3.134;2024-01-30T10:03:53;12.90;99.90
18105;DHT22;9179;50.968;3.134;2024-01-30T10:06:21;13.10;99.90
18105;DHT22;9179;50.968;3.134;2024-01-30T10:08:49;13.80;99.90
18105;DHT22;9179;50.968;3.134;2024-01-30T10:11:16;14.30;99.90
18105;DHT22;9179;50.968;3.134;2024-01-30T10:13:43;14.70;99.90
18105;DHT22;9179;50.968;3.134;2024-01-30T10:16:10;14.60;99.90
18105;DHT22;9179;50.968;3.134;2024-01-30T10:18:37;14.40;99.90
18105;DHT22;9179;50.968;3.134;2024-01-30T10:21:04;14.40;99.90
18105;DHT22;9179;50.968;3.134;2024-01-30T10:23:32;14.40;99.90
18105;DHT22;9179;50.968;3.134;2024-01-30T10:26:00;14.10;99.90
18105;DHT22;9179;50.968;3.134;2024-01-30T10:28:27;13.90;99.90
18105;DHT22;9179;50.968;3.134;2024-01-30T10:30:59;13.80;99.90
18105;DHT22;9179;50.968;3.134;2024-01-30T10:33:26;13.60;99.90
18105;DHT22;9179;50.968;3.134;2024-01-30T10:35:55;13.40;99.90
18105;DHT22;9179;50.968;3.134;2024-01-30T10:38:27;13.40;99.90
18105;DHT22;9179;50.968;3.134;2024-01-30T10:40:57;13.50;99.90
18105;DHT22;9179;50.968;3.134;2024-01-30T10:43:30;13.40;99.90
18105;DHT22;9179;50.968;3.134;2024-01-30T10:46:06;13.40;99.90
18105;DHT22;9179;50.968;3.134;2024-01-30T10:48:36;13.50;99.90
18105;DHT22;9179;50.968;3.134;2024-01-30T10:51:11;13.60;99.90
18105;DHT22;9179;50.968;3.134;2024-01-30T10:53:39;13.40;99.90
18105;DHT22;9179;50.968;3.134;2024-01-30T10:56:08;13.20;99.90
18105;DHT22;9179;50.968;3.134;2024-01-30T10:58:37;13.10;99.90
18105;DHT22;9179;50.968;3.134;2024-01-30T11:01:05;13.10;99.90
18105;DHT22;9179;50.968;3.134;2024-01-30T11:03:33;13.20;99.90
18105;DHT22;9179;50.968;3.134;2024-01-30T11:06:02;13.20;99.90
18105;DHT22;9179;50.968;3.134;2024-01-30T11:08:32;13.50;99.90
18105;DHT22;9179;50.968;3.134;2024-01-30T11:10:59;13.70;99.90
18105;DHT22;9179;50.968;3.134;2024-01-30T11:13:31;13.70;99.90
18105;DHT22;9179;50.968;3.134;2024-01-30T11:16:00;13.70;99.90
18105;DHT22;9179;50.968;3.134;2024-01-30T11:18:29;13.80;99.90
18105;DHT22;9179;50.968;3.134;2024-01-30T11:20:57;13.80;99.90
18105;DHT22;9179;50.968;3.134;2024-01-30T11:23:25;13.90;99.90
18105;DHT22;9179;50.968;3.134;2024-01-30T11:25:53;13.50;99.90
18105;DHT22;9179;50.968;3.134;2024-01-30T11:28:23;13.30;99.90
18105;DHT22;9179;50.968;3.134;2024-01-30T11:30:51;13.20;99.90
18105;DHT22;9179;50.968;3.134;2024-01-30T11:33:28;13.10;99.90
18105;DHT22;9179;50.968;3.134;2024-01-30T11:35:58;12.90;99.90
18105;DHT22;9179;50.968;3.134;2024-01-30T11:38:26;12.70;99.90
18105;DHT22;9179;50.968;3.134;2024-01-30T11:40:54;12.70;99.90
18105;DHT22;9179;50.968;3.134;2024-01-30T11:43:22;12.70;99.90
18105;DHT22;9179;50.968;3.134;2024-01-30T11:45:50;12.90;99.90
18105;DHT22;9179;50.968;3.134;2024-01-30T11:48:18;12.80;99.90
18105;DHT22;9179;50.968;3.134;2024-01-30T11:50:45;12.70;99.90
18105;DHT22;9179;50.968;3.134;2024-01-30T11:53:12;12.60;99.90
18105;DHT22;9179;50.968;3.134;2024-01-30T11:55:39;12.50;99.90
18105;DHT22;9179;50.968;3.134;2024-01-30T11:58:06;12.60;99.90
18105;DHT22;9179;50.968;3.134;2024-01-30T12:00:32;12.40;99.90
18105;DHT22;9179;50.968;3.134;2024-01-30T12:03:01;12.40;99.90
18105;DHT22;9179;50.968;3.134;2024-01-30T12:05:28;12.30;99.90
18105;DHT22;9179;50.968;3.134;2024-01-30T12:07:55;12.30;99.90
18105;DHT22;9179;50.968;3.134;2024-01-30T12:10:24;12.30;99.90
18105;DHT22;9179;50.968;3.134;2024-01-30T12:12:52;12.30;99.90
18105;DHT22;9179;50.968;3.134;2024-01-30T12:15:21;12.20;99.90
18105;DHT22;9179;50.968;3.134;2024-01-30T12:17:49;12.30;99.90
18105;DHT22;9179;50.968;3.134;2024-01-30T12:20:18;12.30;99.90
18105;DHT22;9179;50.968;3.134;2024-01-30T12:22:47;12.30;99.90
18105;DHT22;9179;50.968;3.134;2024-01-30T12:25:15;12.20;99.90
18105;DHT22;9179;50.968;3.134;2024-01-30T12:27:45;12.30;99.90
18105;DHT22;9179;50.968;3.134;2024-01-30T12:30:13;12.40;99.90
18105;DHT22;9179;50.968;3.134;2024-01-30T12:32:41;12.60;99.90
18105;DHT22;9179;50.968;3.134;2024-01-30T12:35:10;12.40;99.90
18105;DHT22;9179;50.968;3.134;2024-01-30T12:37:38;12.40;99.90
18105;DHT22;9179;50.968;3.134;2024-01-30T12:40:07;12.40;99.90
18105;DHT22;9179;50.968;3.134;2024-01-30T12:42:34;12.40;99.90
18105;DHT22;9179;50.968;3.134;2024-01-30T12:45:02;12.50;99.90
18105;DHT22;9179;50.968;3.134;2024-01-30T12:47:30;12.50;99.90
18105;DHT22;9179;50.968;3.134;2024-01-30T12:49:57;12.50;99.90
18105;DHT22;9179;50.968;3.134;2024-01-30T12:52:24;12.40;99.90
18105;DHT22;9179;50.968;3.134;2024-01-30T12:54:52;12.40;99.90
18105;DHT22;9179;50.968;3.134;2024-01-30T12:57:20;12.40;99.90
18105;DHT22;9179;50.968;3.134;2024-01-30T12:59:47;12.30;99.90
18105;DHT22;9179;50.968;3.134;2024-01-30T13:02:15;12.30;99.90
18105;DHT22;9179;50.968;3.134;2024-01-30T13:04:42;12.30;99.90
18105;DHT22;9179;50.968;3.134;2024-01-30T13:07:09;12.20;99.90
18105;DHT22;9179;50.968;3.134;2024-01-30T13:09:36;12.10;99.90
18105;DHT22;9179;50.968;3.134;2024-01-30T13:12:05;12.10;99.90
18105;DHT22;9179;50.968;3.134;2024-01-30T13:14:32;12.10;99.90
18105;DHT22;9179;50.968;3.134;2024-01-30T13:16:59;12.20;99.90
18105;DHT22;9179;50.968;3.134;2024-01-30T13:19:26;12.30;99.90
18105;DHT22;9179;50.968;3.134;2024-01-30T13:21:53;12.30;99.90
18105;DHT22;9179;50.968;3.134;2024-01-30T13:24:20;12.30;99.90
18105;DHT22;9179;50.968;3.134;2024-01-30T13:26:48;12.40;99.90
18105;DHT22;9179;50.968;3.134;2024-01-30T13:29:16;12.30;99.90
18105;DHT22;9179;50.968;3.134;2024-01-30T13:31:43;12.30;99.90
18105;DHT22;9179;50.968;3.134;2024-01-30T13:34:12;12.30;99.90
18105;DHT22;9179;50.968;3.134;2024-01-30T13:36:40;12.20;99.90
18105;DHT22;9179;50.968;3.134;2024-01-30T13:39:07;12.00;99.90
18105;DHT22;9179;50.968;3.134;2024-01-30T13:41:36;11.90;99.90
18105;DHT22;9179;50.968;3.134;2024-01-30T13:44:03;11.90;99.90
18105;DHT22;9179;50.968;3.134;2024-01-30T13:46:31;11.80;99.90
18105;DHT22;9179;50.968;3.134;2024-01-30T13:48:58;11.60;99.90
18105;DHT22;9179;50.968;3.134;2024-01-30T13:51:25;11.40;99.90
18105;DHT22;9179;50.968;3.134;2024-01-30T13:53:52;11.30;99.90
18105;DHT22;9179;50.968;3.134;2024-01-30T13:56:19;11.10;99.90
18105;DHT22;9179;50.968;3.134;2024-01-30T13:58:47;10.90;99.90
18105;DHT22;9179;50.968;3.134;2024-01-30T14:01:14;10.80;99.90
18105;DHT22;9179;50.968;3.134;2024-01-30T14:03:43;10.80;99.90
18105;DHT22;9179;50.968;3.134;2024-01-30T14:06:10;10.90;99.90
18105;DHT22;9179;50.968;3.134;2024-01-30T14:08:37;11.00;99.90
18105;DHT22;9179;50.968;3.134;2024-01-30T14:11:04;11.10;99.90
18105;DHT22;9179;50.968;3.134;2024-01-30T14:13:31;11.20;99.90
18105;DHT22;9179;50.968;3.134;2024-01-30T14:15:58;11.10;99.90
18105;DHT22;9179;50.968;3.134;2024-01-30T14:18:25;11.10;99.90
18105;DHT22;9179;50.968;3.134;2024-01-30T14:20:53;11.10;99.90
18105;DHT22;9179;50.968;3.134;2024-01-30T14:23:21;11.10;99.90
18105;DHT22;9179;50.968;3.134;2024-01-30T14:25:48;11.10;99.90
18105;DHT22;9179;50.968;3.134;2024-01-30T14:28:17;11.10;99.90
18105;DHT22;9179;50.968;3.134;2024-01-30T14:30:44;11.30;99.90
18105;DHT22;9179;50.968;3.134;2024-01-30T14:33:11;11.40;99.90
18105;DHT22;9179;50.968;3.134;2024-01-30T14:35:38;11.50;99.90
18105;DHT22;9179;50.968;3.134;2024-01-30T14:38:07;11.40;99.90
18105;DHT22;9179;50.968;3.134;2024-01-30T14:40:35;11.40;99.90
18105;DHT22;9179;50.968;3.134;2024-01-30T14:43:02;11.30;99.90
18105;DHT22;9179;50.968;3.134;2024-01-30T14:45:29;11.30;99.90
18105;DHT22;9179;50.968;3.134;2024-01-30T14:47:58;11.20;99.90
18105;DHT22;9179;50.968;3.134;2024-01-30T14:50:25;11.20;99.90
18105;DHT22;9179;50.968;3.134;2024-01-30T14:52:54;11.10;99.90
18105;DHT22;9179;50.968;3.134;2024-01-30T14:55:22;11.00;99.90
18105;DHT22;9179;50.968;3.134;2024-01-30T14:57:49;11.00;99.90
18105;DHT22;9179;50.968;3.134;2024-01-30T15:00:17;11.00;99.90
18105;DHT22;9179;50.968;3.134;2024-01-30T15:02:44;11.00;99.90
18105;DHT22;9179;50.968;3.134;2024-01-30T15:05:13;11.00;99.90
18105;DHT22;9179;50.968;3.134;2024-01-30T15:07:40;11.00;99.90
18105;DHT22;9179;50.968;3.134;2024-01-30T15:10:08;11.00;99.90
18105;DHT22;9179;50.968;3.134;2024-01-30T15:12:37;11.00;99.90
18105;DHT22;9179;50.968;3.134;2024-01-30T15:15:06;11.10;99.90
18105;DHT22;9179;50.968;3.134;2024-01-30T15:17:34;11.00;99.90
18105;DHT22;9179;50.968;3.134;2024-01-30T15:20:01;11.00;99.90
18105;DHT22;9179;50.968;3.134;2024-01-30T15:22:29;11.00;99.90
18105;DHT22;9179;50.968;3.134;2024-01-30T15:24:56;11.00;99.90
18105;DHT22;9179;50.968;3.134;2024-01-30T15:27:23;11.00;99.90
18105;DHT22;9179;50.968;3.134;2024-01-30T15:29:52;10.80;99.90
18105;DHT22;9179;50.968;3.134;2024-01-30T15:32:19;10.70;99.90
18105;DHT22;9179;50.968;3.134;2024-01-30T15:34:46;10.70;99.90
18105;DHT22;9179;50.968;3.134;2024-01-30T15:37:13;10.80;99.90
18105;DHT22;9179;50.968;3.134;2024-01-30T15:39:40;10.80;99.90
18105;DHT22;9179;50.968;3.134;2024-01-30T15:42:07;10.80;99.90
18105;DHT22;9179;50.968;3.134;2024-01-30T15:44:34;10.70;99.90
18105;DHT22;9179;50.968;3.134;2024-01-30T15:47:03;10.70;99.90